createdAt,value
2019-04-20T00:00:52.971Z,12.19
2019-04-20T00:03:44.773Z,12.16
2019-04-20T00:06:27.057Z,12.14
2019-04-20T00:09:21.383Z,12.07
2019-04-20T00:12:08.941Z,11.98
2019-04-20T00:14:52.613Z,12.01
2019-04-20T00:17:50.829Z,11.86
2019-04-20T00:20:31.978Z,11.93
2019-04-20T00:23:40.088Z,11.85
2019-04-20T00:29:52.385Z,11.76
2019-04-20T00:32:23.382Z,11.67
2019-04-20T00:35:06.326Z,11.60
2019-04-20T00:37:54.919Z,11.60
2019-04-20T00:40:39.243Z,11.48
2019-04-20T00:43:29.141Z,11.42
2019-04-20T00:46:19.556Z,11.40
2019-04-20T00:49:01.306Z,11.26
2019-04-20T00:52:17.063Z,11.27
2019-04-20T00:54:30.592Z,11.19
2019-04-20T00:57:30.583Z,11.02
2019-04-20T01:00:21.880Z,11.16
2019-04-20T01:03:14.271Z,10.93
2019-04-20T01:09:18.344Z,11.08
2019-04-20T01:12:03.705Z,10.83
2019-04-20T01:14:57.347Z,11.06
2019-04-20T01:17:37.833Z,11.13
2019-04-20T01:20:28.011Z,11.01
2019-04-20T01:23:22.176Z,11.09
2019-04-20T01:26:07.522Z,10.99
2019-04-20T01:29:06.677Z,10.81
2019-04-20T01:31:52.710Z,10.77
2019-04-20T01:34:42.683Z,10.65
2019-04-20T01:37:26.197Z,10.72
2019-04-20T01:40:07.506Z,10.84
2019-04-20T01:42:51.061Z,10.91
2019-04-20T01:46:07.656Z,10.84
2019-04-20T01:48:44.688Z,10.77
2019-04-20T01:51:47.228Z,10.72
2019-04-20T01:54:31.210Z,10.46
2019-04-20T01:57:38.594Z,10.23
2019-04-20T02:00:37.336Z,10.23
2019-04-20T02:03:44.834Z,10.33
2019-04-20T02:06:39.933Z,10.42
2019-04-20T02:09:26.409Z,10.40
2019-04-20T02:12:12.152Z,10.21
2019-04-20T02:15:02.758Z,10.22
2019-04-20T02:17:51.912Z,10.32
2019-04-20T02:20:56.751Z,10.14
2019-04-20T02:23:31.799Z,10.20
2019-04-20T02:26:11.113Z,10.10
2019-04-20T02:29:18.150Z,9.91
2019-04-20T02:32:23.380Z,10.05
2019-04-20T02:38:54.630Z,10.13
2019-04-20T02:41:19.140Z,10.13
2019-04-20T02:44:17.912Z,10.13
2019-04-20T02:46:55.965Z,10.06
2019-04-20T02:49:51.443Z,10.06
2019-04-20T03:01:03.866Z,9.96
2019-04-20T03:03:33.987Z,9.71
2019-04-20T03:06:26.712Z,9.87
2019-04-20T03:10:09.451Z,9.78
2019-04-20T03:12:50.337Z,9.62
2019-04-20T03:16:01.914Z,9.72
2019-04-20T03:18:44.610Z,9.80
2019-04-20T03:21:41.895Z,9.76
2019-04-20T03:24:29.540Z,9.71
2019-04-20T03:27:19.702Z,9.60
2019-04-20T03:33:23.124Z,9.80
2019-04-20T03:36:10.313Z,9.77
2019-04-20T03:38:41.447Z,9.74
2019-04-20T03:41:24.478Z,9.57
2019-04-20T03:44:04.127Z,9.54
2019-04-20T03:46:57.250Z,9.58
2019-04-20T03:50:10.770Z,9.51
2019-04-20T03:55:56.698Z,9.09
2019-04-20T03:58:47.361Z,9.13
2019-04-20T04:02:14.930Z,9.10
2019-04-20T04:05:03.303Z,9.19
2019-04-20T04:07:39.802Z,8.89
2019-04-20T04:10:28.036Z,9.13
2019-04-20T04:13:27.031Z,8.98
2019-04-20T04:16:14.713Z,9.11
2019-04-20T04:19:12.625Z,8.98
2019-04-20T04:22:01.645Z,8.97
2019-04-20T04:24:54.230Z,8.77
2019-04-20T04:27:40.591Z,8.63
2019-04-20T04:30:26.355Z,8.51
2019-04-20T04:33:39.940Z,8.36
2019-04-20T04:36:05.830Z,8.46
2019-04-20T04:38:59.832Z,8.41
2019-04-20T04:41:39.907Z,8.55
2019-04-20T04:44:26.606Z,8.44
2019-04-20T04:47:02.661Z,8.39
2019-04-20T04:49:57.867Z,8.32
2019-04-20T04:52:48.119Z,8.31
2019-04-20T04:55:35.269Z,8.56
2019-04-20T04:58:17.289Z,8.73
2019-04-20T05:01:05.527Z,8.51
2019-04-20T05:04:33.275Z,8.81
2019-04-20T05:07:07.252Z,8.83
2019-04-20T05:09:48.696Z,9.02
2019-04-20T05:12:35.443Z,9.10
2019-04-20T05:15:37.624Z,9.23
2019-04-20T05:18:34.784Z,10.62
2019-04-20T05:21:30.226Z,12.47
2019-04-20T05:24:59.642Z,14.53
2019-04-20T05:27:51.238Z,15.06
2019-04-20T05:30:16.027Z,16.41
2019-04-20T05:33:08.254Z,16.70
2019-04-20T05:36:09.979Z,17.51
2019-04-20T05:39:11.614Z,17.97
2019-04-20T05:41:42.522Z,19.37
2019-04-20T05:47:40.065Z,16.40
2019-04-20T05:50:32.863Z,16.44
2019-04-20T05:53:24.567Z,15.95
2019-04-20T05:56:07.285Z,16.30
2019-04-20T05:58:58.048Z,16.83
2019-04-20T06:01:53.290Z,17.07
2019-04-20T06:04:46.293Z,16.61
2019-04-20T06:07:27.103Z,17.37
2019-04-20T06:10:16.864Z,17.44
2019-04-20T06:16:07.637Z,18.03
2019-04-20T06:22:19.265Z,18.22
2019-04-20T06:28:06.595Z,16.42
2019-04-20T06:30:52.134Z,17.03
2019-04-20T06:34:27.603Z,16.57
2019-04-20T06:40:38.728Z,15.95
2019-04-20T06:43:07.859Z,16.85
2019-04-20T06:46:04.459Z,17.38
2019-04-20T06:48:45.893Z,17.56
2019-04-20T06:54:53.764Z,17.87
2019-04-20T07:00:42.227Z,18.54
2019-04-20T07:03:40.296Z,18.34
2019-04-20T07:06:34.296Z,18.32
2019-04-20T07:09:12.795Z,18.08
2019-04-20T07:11:50.381Z,17.88
2019-04-20T07:14:34.550Z,18.60
2019-04-20T07:23:37.117Z,18.57
2019-04-20T07:26:24.385Z,19.03
2019-04-20T07:29:21.029Z,19.39
2019-04-20T07:32:07.607Z,18.65
2019-04-20T07:34:58.584Z,18.39
2019-04-20T07:38:25.586Z,17.58
2019-04-20T07:40:50.671Z,17.06
2019-04-20T07:43:57.100Z,16.44
2019-04-20T07:46:41.234Z,16.46
2019-04-20T07:49:19.259Z,16.51
2019-04-20T07:51:44.364Z,16.13
2019-04-20T07:55:12.452Z,15.82
2019-04-20T07:57:35.056Z,15.83
2019-04-20T08:00:27.549Z,15.50
2019-04-20T08:06:23.271Z,15.06
2019-04-20T08:12:55.607Z,15.21
2019-04-20T08:15:42.901Z,15.06
2019-04-20T08:18:27.607Z,15.00
2019-04-20T08:21:09.884Z,14.93
2019-04-20T08:23:59.529Z,15.22
2019-04-20T08:26:31.076Z,15.36
2019-04-20T08:29:50.135Z,15.04
2019-04-20T08:32:54.213Z,15.18
2019-04-20T08:35:52.578Z,14.99
2019-04-20T08:41:16.962Z,15.44
2019-04-20T08:44:21.083Z,16.02
2019-04-20T08:47:05.180Z,16.14
2019-04-20T08:49:47.451Z,16.01
2019-04-20T08:52:55.517Z,16.44
2019-04-20T08:55:15.881Z,16.13
2019-04-20T09:01:04.957Z,16.12
2019-04-20T09:04:03.512Z,16.34
2019-04-20T09:06:50.638Z,16.41
2019-04-20T09:09:58.185Z,16.63
2019-04-20T09:12:35.533Z,16.64
2019-04-20T09:15:05.979Z,16.61
2019-04-20T09:21:07.687Z,16.68
2019-04-20T09:24:04.537Z,16.55
2019-04-20T09:26:47.502Z,16.88
2019-04-20T09:29:33.416Z,16.92
2019-04-20T09:35:34.080Z,17.75
2019-04-20T09:38:15.615Z,17.92
2019-04-20T09:41:03.681Z,18.18
2019-04-20T09:43:58.313Z,17.84
2019-04-20T09:46:50.071Z,17.73
2019-04-20T09:49:45.521Z,17.51
2019-04-20T09:52:32.189Z,17.64
2019-04-20T09:55:44.862Z,17.69
2019-04-20T09:58:28.102Z,18.02
2019-04-20T10:01:21.427Z,18.12
2019-04-20T10:03:54.721Z,18.28
2019-04-20T10:06:45.559Z,17.91
2019-04-20T10:09:35.766Z,17.82
2019-04-20T10:12:13.477Z,18.16
2019-04-20T10:15:12.415Z,17.92
2019-04-20T10:17:47.794Z,18.21
2019-04-20T10:20:38.878Z,18.23
2019-04-20T10:23:22.732Z,17.92
2019-04-20T10:26:14.280Z,18.29
2019-04-20T10:28:57.576Z,18.97
2019-04-20T10:31:54.672Z,19.19
2019-04-20T10:41:16.646Z,19.77
2019-04-20T10:43:53.406Z,19.63
2019-04-20T10:46:44.964Z,19.58
2019-04-20T10:49:29.129Z,19.99
2019-04-20T10:52:19.976Z,19.79
2019-04-20T10:55:04.245Z,19.64
2019-04-20T11:00:39.822Z,19.67
2019-04-20T11:06:32.652Z,20.00
2019-04-20T11:09:23.058Z,19.68
2019-04-20T11:12:06.421Z,19.91
2019-04-20T11:14:56.731Z,19.78
2019-04-20T11:17:40.078Z,19.75
2019-04-20T11:20:31.695Z,19.98
2019-04-20T11:23:18.149Z,19.93
2019-04-20T11:26:08.681Z,19.92
2019-04-20T11:31:54.018Z,20.14
2019-04-20T11:34:43.650Z,20.23
2019-04-20T11:37:29.048Z,20.39
2019-04-20T11:40:19.527Z,20.61
2019-04-20T11:43:03.882Z,20.71
2019-04-20T11:45:54.549Z,20.89
2019-04-20T11:48:47.382Z,20.86
2019-04-20T11:51:31.783Z,20.36
2019-04-20T11:54:22.202Z,20.33
2019-04-20T11:57:13.306Z,20.71
2019-04-20T11:59:59.119Z,20.48
2019-04-20T12:03:16.110Z,20.58
2019-04-20T12:05:57.440Z,21.01
2019-04-20T12:08:46.985Z,21.28
2019-04-20T12:11:37.144Z,21.13
2019-04-20T12:14:22.912Z,20.90
2019-04-20T12:17:07.931Z,20.97
2019-04-20T12:19:59.868Z,20.95
2019-04-20T12:22:44.502Z,21.22
2019-04-20T12:25:32.545Z,21.25
2019-04-20T12:28:21.961Z,21.26
2019-04-20T12:31:11.994Z,21.22
2019-04-20T12:34:18.162Z,21.27
2019-04-20T12:37:01.384Z,21.37
2019-04-20T12:39:53.206Z,21.39
2019-04-20T12:42:37.054Z,21.28
2019-04-20T12:48:45.008Z,21.66
2019-04-20T12:51:43.679Z,21.77
2019-04-20T12:54:20.749Z,21.77
2019-04-20T12:57:11.119Z,21.68
2019-04-20T13:00:01.696Z,21.70
2019-04-20T13:02:47.391Z,21.48
2019-04-20T13:05:38.127Z,21.65
2019-04-20T13:08:28.572Z,21.55
2019-04-20T13:11:44.117Z,21.67
2019-04-20T13:17:51.090Z,21.83
2019-04-20T13:23:29.007Z,21.88
2019-04-20T13:26:19.479Z,22.18
2019-04-20T13:29:04.749Z,21.88
2019-04-20T13:31:56.784Z,21.88
2019-04-20T13:34:40.367Z,21.82
2019-04-20T13:37:31.833Z,21.95
2019-04-20T13:40:17.661Z,21.70
2019-04-20T13:43:08.198Z,21.78
2019-04-20T13:45:53.061Z,21.85
2019-04-20T13:48:44.747Z,21.84
2019-04-20T13:51:30.835Z,21.83
2019-04-20T13:54:24.892Z,21.92
2019-04-20T14:06:09.134Z,22.09
2019-04-20T14:08:53.680Z,22.04
2019-04-20T14:11:36.833Z,22.05
2019-04-20T14:14:27.117Z,22.04
2019-04-20T14:17:17.591Z,22.10
2019-04-20T14:20:13.352Z,22.06
2019-04-20T14:22:54.714Z,22.09
2019-04-20T14:25:38.750Z,22.02
2019-04-20T14:28:29.193Z,21.91
2019-04-20T14:31:19.631Z,22.14
2019-04-20T14:34:10.960Z,22.17
2019-04-20T14:36:57.125Z,22.41
2019-04-20T14:39:40.544Z,22.47
2019-04-20T14:42:40.723Z,22.66
2019-04-20T14:45:16.540Z,22.78
2019-04-20T14:48:07.949Z,22.46
2019-04-20T14:50:59.355Z,22.33
2019-04-20T14:53:51.574Z,22.37
2019-04-20T14:56:35.847Z,22.21
2019-04-20T15:02:30.158Z,22.23
2019-04-20T15:05:14.964Z,22.58
2019-04-20T15:08:06.890Z,22.48
2019-04-20T15:10:56.705Z,22.34
2019-04-20T15:13:48.931Z,22.42
2019-04-20T15:16:32.804Z,22.16
2019-04-20T15:19:43.265Z,22.25
2019-04-20T15:22:31.718Z,22.32
2019-04-20T15:25:23.396Z,22.38
2019-04-20T15:28:10.419Z,22.29
2019-04-20T15:31:00.805Z,22.14
2019-04-20T15:33:43.736Z,22.13
2019-04-20T15:36:34.136Z,22.20
2019-04-20T15:39:18.941Z,22.25
2019-04-20T15:42:09.637Z,22.25
2019-04-20T15:44:55.644Z,22.04
2019-04-20T15:47:46.032Z,21.86
2019-04-20T15:50:38.079Z,22.11
2019-04-20T15:53:21.940Z,22.26
2019-04-20T15:56:29.096Z,22.26
2019-04-20T15:59:14.550Z,22.23
2019-04-20T16:02:25.149Z,22.25
2019-04-20T16:08:26.058Z,22.28
2019-04-20T16:11:11.076Z,22.24
2019-04-20T16:14:03.471Z,22.25
2019-04-20T16:16:46.573Z,22.12
2019-04-20T16:19:40.695Z,22.07
2019-04-20T16:28:37.617Z,21.76
2019-04-20T16:31:20.741Z,21.63
2019-04-20T16:34:11.717Z,21.74
2019-04-20T16:37:04.326Z,21.71
2019-04-20T16:39:48.329Z,21.69
2019-04-20T16:42:52.132Z,21.74
2019-04-20T16:45:35.139Z,21.63
2019-04-20T16:48:26.305Z,21.60
2019-04-20T16:51:11.019Z,21.44
2019-04-20T16:54:01.621Z,21.54
2019-04-20T16:56:46.624Z,21.54
2019-04-20T16:59:42.377Z,21.60
2019-04-20T17:02:12.834Z,21.52
2019-04-20T17:05:03.038Z,21.43
2019-04-20T17:07:48.953Z,21.36
2019-04-20T17:10:39.374Z,21.31
2019-04-20T17:13:34.156Z,21.22
2019-04-20T17:16:15.487Z,21.26
2019-04-20T17:18:59.644Z,21.12
2019-04-20T17:21:50.805Z,21.14
2019-04-20T17:24:37.585Z,21.09
2019-04-20T17:27:46.910Z,21.07
2019-04-20T17:30:50.871Z,20.98
2019-04-20T17:33:55.129Z,20.90
2019-04-20T17:36:31.763Z,20.92
2019-04-20T17:42:37.487Z,20.75
2019-04-20T17:48:31.524Z,20.63
2019-04-20T17:51:29.100Z,20.56
2019-04-20T17:54:17.718Z,20.54
2019-04-20T18:03:19.591Z,20.28
2019-04-20T18:06:17.281Z,20.21
2019-04-20T18:09:00.277Z,20.19
2019-04-20T18:11:42.670Z,20.07
2019-04-20T18:14:41.931Z,19.95
2019-04-20T18:17:53.525Z,19.83
2019-04-20T18:23:43.259Z,19.53
2019-04-20T18:26:45.427Z,19.37
2019-04-20T18:29:52.793Z,19.25
2019-04-20T18:35:28.884Z,18.99
2019-04-20T18:38:20.181Z,18.91
2019-04-20T18:41:08.883Z,18.77
2019-04-20T18:43:58.999Z,18.78
2019-04-20T18:47:09.512Z,18.73
2019-04-20T18:49:48.684Z,18.52
2019-04-20T18:52:19.712Z,18.47
2019-04-20T18:58:07.055Z,18.16
2019-04-20T19:00:58.982Z,18.27
2019-04-20T19:03:50.960Z,18.40
2019-04-20T19:06:34.231Z,18.33
2019-04-20T19:09:28.511Z,18.31
2019-04-20T19:12:12.704Z,18.29
2019-04-20T19:15:39.461Z,18.25
2019-04-20T19:18:42.423Z,18.14
2019-04-20T19:24:16.912Z,17.91
2019-04-20T19:27:08.860Z,17.76
2019-04-20T19:29:58.959Z,17.79
2019-04-20T19:32:49.948Z,17.68
2019-04-20T19:35:40.609Z,17.77
2019-04-20T19:38:17.621Z,17.78
2019-04-20T19:41:20.427Z,17.82
2019-04-20T19:46:58.629Z,17.88
2019-04-20T19:49:43.537Z,17.92
2019-04-20T19:52:49.301Z,18.02
2019-04-20T19:55:16.129Z,17.94
2019-04-20T19:58:02.528Z,18.05
2019-04-20T20:00:59.573Z,18.02
2019-04-20T20:03:43.762Z,17.93
2019-04-20T20:06:41.357Z,17.87
2019-04-20T20:09:20.005Z,17.91
2019-04-20T20:12:14.487Z,17.84
2019-04-20T20:14:55.348Z,17.85
2019-04-20T20:18:06.065Z,17.77
2019-04-20T20:20:47.324Z,17.77
2019-04-20T20:23:21.408Z,17.78
2019-04-20T20:26:20.691Z,17.75
2019-04-20T20:29:09.238Z,17.63
2019-04-20T20:32:03.374Z,17.52
2019-04-20T20:34:41.769Z,17.57
2019-04-20T20:37:27.275Z,17.53
2019-04-20T20:40:21.109Z,17.57
2019-04-20T20:43:09.651Z,17.50
2019-04-20T20:49:15.284Z,17.48
2019-04-20T20:52:02.489Z,17.49
2019-04-20T20:54:34.735Z,17.36
2019-04-20T20:57:20.004Z,17.24
2019-04-20T21:00:07.667Z,17.17
2019-04-20T21:02:59.293Z,17.05
2019-04-20T21:05:37.639Z,16.83
2019-04-20T21:08:29.304Z,16.35
2019-04-20T21:11:21.598Z,16.13
2019-04-20T21:14:06.830Z,15.81
2019-04-20T21:20:05.382Z,15.54
2019-04-20T21:28:26.919Z,15.46
2019-04-20T21:31:18.553Z,15.30
2019-04-20T21:34:01.881Z,15.31
2019-04-20T21:36:45.299Z,15.18
2019-04-20T21:39:30.123Z,15.15
2019-04-20T21:42:09.194Z,15.14
2019-04-20T21:45:05.590Z,15.12
2019-04-20T21:47:39.958Z,14.96
2019-04-20T21:50:45.327Z,14.80
2019-04-20T21:53:22.925Z,14.67
2019-04-20T21:56:10.366Z,14.54
2019-04-20T21:58:58.582Z,14.43
2019-04-20T22:01:55.973Z,14.32
2019-04-20T22:04:29.295Z,14.17
2019-04-20T22:07:38.625Z,14.14
2019-04-20T22:10:27.542Z,14.05
2019-04-20T22:16:05.237Z,13.81
2019-04-20T22:18:51.811Z,13.89
2019-04-20T22:21:50.132Z,13.89
2019-04-20T22:24:42.484Z,13.91
2019-04-20T22:27:20.436Z,13.92
2019-04-20T22:30:26.448Z,13.90
2019-04-20T22:36:10.830Z,14.00
2019-04-20T22:39:23.500Z,13.98
2019-04-20T22:42:08.944Z,13.92
2019-04-20T22:45:01.919Z,13.81
2019-04-20T22:47:40.811Z,13.76
2019-04-20T22:50:43.804Z,13.70
2019-04-20T22:53:29.856Z,13.74
2019-04-20T22:56:24.319Z,13.69
2019-04-20T22:59:01.062Z,13.74
2019-04-20T23:01:48.480Z,13.72
2019-04-20T23:04:34.855Z,13.68
2019-04-20T23:07:20.945Z,13.42
2019-04-20T23:10:05.034Z,13.42
2019-04-20T23:12:59.181Z,13.35
2019-04-20T23:15:42.418Z,13.43
2019-04-20T23:18:26.504Z,13.39
2019-04-20T23:21:17.611Z,13.35
2019-04-20T23:24:10.106Z,13.68
2019-04-20T23:26:53.160Z,13.53
2019-04-20T23:29:58.351Z,13.61
2019-04-20T23:32:46.297Z,13.46
2019-04-20T23:35:42.510Z,13.40
2019-04-20T23:38:24.604Z,13.65
2019-04-20T23:41:08.006Z,13.47
2019-04-20T23:44:19.016Z,13.26
2019-04-20T23:50:13.657Z,13.09
2019-04-20T23:52:49.128Z,13.14
2019-04-20T23:55:05.966Z,13.07
2019-04-20T23:57:59.487Z,13.04
